Byron Center, Michigan
Current Conditions -  °F | °C
As of 10:53 PM on Sunday 23 Nov 2014 (Local Time) from KGRR Reporting Station
Moderate Rain Moderate Rain  
Wind Chill: 45°   Ceiling: 900
Heat Index: 49°   Visibility: 2.5mi
Dew Point: 47°   Wind: 8mph
Humidity: 93%   Direction: 110°ESE
Pressure: 29.22"   Gusts: NA
Location:  42.81°N, 85.72°W
Report Text: KGRR 240353Z 11007KT 2 1/2SM RA BR BKN009 OVC016 09/08 A2922 RMK AO2 PRESFR SLP895 P0013 T00940083
Loading
Personal Weather Stations






























Interactive Weather Map New forecast layout! Learn more

10-Day Weather Forecast

Advertisements
Track Severe Weather on mobile